• Join FlightAware (Why Join?)
  • Login
  • US Flag 
04:22AM EDT


 

Airport Tracker/Info


-or-


 

Live Flight TrackerFlight Track Log ✈ EJA941 ✈ 20-Jun-2013 ✈ KIAD - KAPA

Flight Track Log - Related Links

Times and Time Zones

All times are in EDT time to prevent confusion due to time zone crossing. See the EJA941 flight status page for this flight to view local times or setup timezone preferences in your user account.

Time Position Orientation Groundspeed Altitude Reporting Facility
EDT Latitude Longitude Course Direction KTS MPH feet Rate Location/Type
03:53PM 38.9333 -77.5667 255° West 219 252 4,200  Level Potomac TRACON
03:54PM 38.9097 -77.6831 255° West 241 277 5,000 1,020 Climbing Washington Center
03:55PM 38.8689 -77.7592 235° Southwest 263 303 6,700 2,100 Climbing Washington Center
03:56PM 38.8278 -77.8433 238° Southwest 282 325 9,200 2,040 Climbing Washington Center
03:57PM 38.8339 -77.9528 274° West 289 333 10,800 1,380 Climbing Washington Center
03:58PM 38.8439 -78.0758 276° West 309 356 12,000 1,440 Climbing Washington Center
03:59PM 38.8539 -78.2042 276° West 345 397 13,800 1,620 Climbing Washington Center
04:00PM 38.8531 -78.3347 270° West 362 417 15,300 1,320 Climbing Washington Center
04:01PM 38.8519 -78.4653 269° West 368 423 16,500 1,200 Climbing Washington Center
04:02PM 38.8508 -78.6011 269° West 375 432 17,800 1,140 Climbing Washington Center
04:03PM 38.8494 -78.7344 269° West 380 437 18,900 1,140 Climbing Washington Center
04:04PM 38.8478 -78.8728 269° West 385 443 20,100 1,140 Climbing Washington Center
04:05PM 38.8458 -79.0142 269° West 385 443 21,200 1,140 Climbing Washington Center
04:06PM 38.8439 -79.1553 269° West 395 455 22,500 1,320 Climbing Washington Center
04:07PM 38.8417 -79.3017 269° West 402 463 23,900 1,320 Climbing Washington Center
04:08PM 38.8392 -79.4456 269° West 409 471 25,200 1,380 Climbing Washington Center
04:09PM 38.8339 -79.6025 268° West 426 490 26,700 1,260 Climbing Washington Center
04:10PM 38.8308 -79.7569 269° West 438 504 27,800 960 Climbing Washington Center
04:11PM 38.8281 -79.8953 269° West 438 504 28,700 900 Climbing Washington Center
04:12PM 38.8208 -79.9956 265° West 440 506 29,300 1,080 Climbing Indianapolis Center
04:13PM 38.8169 -80.1564 268° West 451 519 30,400 1,320 Climbing Indianapolis Center
04:14PM 38.8133 -80.3181 268° West 453 521 32,100 1,500 Climbing Indianapolis Center
04:15PM 38.8086 -80.4767 268° West 446 513 33,500 1,560 Climbing Indianapolis Center
04:16PM 38.8036 -80.6356 268° West 446 513 35,400 1,740 Climbing Indianapolis Center
04:17PM 38.7994 -80.7922 268° West 442 509 37,200 1,740 Climbing Indianapolis Center
04:18PM 38.7939 -80.9767 268° West 432 497 39,100 1,320 Climbing Indianapolis Center
04:19PM 38.7886 -81.1325 268° West 437 503 40,000 420 Climbing Indianapolis Center
04:20PM 38.7839 -81.2914 268° West 447 514 40,000  Level Indianapolis Center
04:21PM 38.7764 -81.4606 267° West 457 526 40,000  Level Indianapolis Center
04:22PM 38.7708 -81.6306 268° West 473 544 40,000  Level Indianapolis Center
04:23PM 38.7636 -81.8161 267° West 474 545 40,000  Level Indianapolis Center
04:24PM 38.7564 -81.9839 267° West 474 545 40,000  Level Indianapolis Center
04:25PM 38.7497 -82.1528 267° West 475 547 40,000  Level Indianapolis Center
04:26PM 38.7433 -82.3219 267° West 476 548 40,000  Level Indianapolis Center
04:27PM 38.7358 -82.5233 267° West 473 544 40,000  Level Indianapolis Center
04:28PM 38.7283 -82.6925 267° West 476 548 40,000  Level Indianapolis Center
04:29PM 38.7214 -82.8603 267° West 473 544 40,000  Level Indianapolis Center
04:30PM 38.7133 -83.0292 267° West 475 547 40,000  Level Indianapolis Center
04:32PM 38.7056 -83.2133 267° West 470 541 40,000  Level Indianapolis Center
04:33PM 38.6969 -83.3833 266° West 471 542 40,000  Level Indianapolis Center
04:34PM 38.6881 -83.5525 266° West 471 542 40,000  Level Indianapolis Center
04:35PM 38.6797 -83.7217 266° West 472 543 40,000  Level Indianapolis Center
04:36PM 38.6717 -83.8908 267° West 471 542 40,000  Level Indianapolis Center
04:37PM 38.6622 -84.0617 266° West 477 549 40,000  Level Indianapolis Center
04:38PM 38.6528 -84.2328 266° West 475 547 40,000  Level Indianapolis Center
04:39PM 38.6542 -84.4061 271° West 484 557 40,000  Level Indianapolis Center
04:40PM 38.6658 -84.6069 274° West 480 552 40,000  Level Indianapolis Center
04:41PM 38.6764 -84.7783 275° West 483 556 40,000  Level Indianapolis Center
04:42PM 38.6872 -84.9494 275° West 483 556 40,000  Level Indianapolis Center
04:43PM 38.6958 -85.1206 274° West 483 556 40,000  Level Indianapolis Center
04:44PM 38.7058 -85.2925 274° West 484 557 40,000  Level Indianapolis Center
04:45PM 38.7144 -85.4647 274° West 485 558 40,000  Level Indianapolis Center
04:46PM 38.7225 -85.6383 273° West 487 560 40,000  Level Indianapolis Center
04:47PM 38.7331 -85.8461 274° West 486 559 40,000  Level Indianapolis Center
04:48PM 38.7400 -85.9981 273° West 487 560 40,000  Level Indianapolis Center
04:49PM 38.7494 -86.2058 273° West 488 562 40,000  Level Indianapolis Center
04:50PM 38.7572 -86.3797 273° West 489 563 40,000  Level Indianapolis Center
04:51PM 38.7642 -86.5525 273° West 489 563 40,000  Level Indianapolis Center
04:52PM 38.7711 -86.7261 273° West 490 564 40,000  Level Indianapolis Center
04:53PM 38.7783 -86.9003 273° West 492 566 40,000  Level Indianapolis Center
04:54PM 38.7858 -87.1108 273° West 495 570 40,000  Level Indianapolis Center
04:55PM 38.7922 -87.2856 273° West 494 568 40,000  Level Indianapolis Center
04:56PM 38.7983 -87.4600 273° West 492 566 40,000  Level Indianapolis Center
04:57PM 38.8042 -87.6331 273° West 491 565 40,000  Level Indianapolis Center
04:58PM 38.8086 -87.8103 272° West 495 570 40,000  Level Indianapolis Center
04:59PM 38.8144 -87.9864 272° West 495 570 40,000  Level Indianapolis Center
05:00PM 38.8167 -88.1292 271° West 494 568 40,000  Level Kansas City Center
05:01PM 38.8211 -88.3039 272° West 491 565 40,000  Level Kansas City Center
05:02PM 38.8267 -88.4789 272° West 491 565 40,000  Level Kansas City Center
05:03PM 38.8283 -88.6622 271° West 489 563 40,000  Level Kansas City Center
05:04PM 38.8336 -88.8350 272° West 486 559 40,000  Level Kansas City Center
05:05PM 38.8392 -89.0425 272° West 487 560 40,000  Level Kansas City Center
05:06PM 38.8428 -89.2161 272° West 489 563 40,000  Level Kansas City Center
05:07PM 38.8472 -89.3917 272° West 492 566 40,000  Level Kansas City Center
05:08PM 38.8506 -89.5661 271° West 493 567 40,000  Level Kansas City Center
05:10PM 38.8531 -89.7411 271° West 493 567 40,000  Level Kansas City Center
05:11PM 38.8553 -89.9158 271° West 493 567 40,000  Level Kansas City Center
05:12PM 38.8592 -90.1214 271° West 494 568 40,000  Level Kansas City Center
05:13PM 38.8619 -90.2983 271° West 496 571 40,000  Level Kansas City Center
05:14PM 38.8619 -90.4742 270° West 495 570 40,000  Level Kansas City Center
05:15PM 38.8394 -90.6519 261° West 500 575 40,000  Level Kansas City Center
05:16PM 38.8133 -90.8547 261° West 500 575 40,000  Level Kansas City Center
05:17PM 38.7908 -91.0275 261° West 497 572 40,000  Level Kansas City Center
05:18PM 38.7681 -91.2006 260° West 497 572 40,000  Level Kansas City Center
05:19PM 38.7453 -91.3753 261° West 498 573 40,000  Level Kansas City Center
05:20PM 38.7214 -91.5486 260° West 498 573 40,000  Level Kansas City Center
05:21PM 38.6953 -91.7350 260° West 499 574 40,000  Level Kansas City Center
05:22PM 38.6653 -91.9422 260° West 496 571 40,000  Level Kansas City Center
05:23PM 38.6394 -92.1139 259° West 495 570 40,000  Level Kansas City Center
05:24PM 38.6153 -92.2867 260° West 496 571 40,000  Level Kansas City Center
05:25PM 38.5892 -92.4567 259° West 495 570 40,000  Level Kansas City Center
05:26PM 38.5639 -92.6244 259° West 489 563 40,000  Level Kansas City Center
05:27PM 38.5386 -92.7953 259° West 488 562 40,000  Level Kansas City Center
05:28PM 38.5075 -93.0000 259° West 491 565 40,000  Level Kansas City Center
05:29PM 38.4819 -93.1714 259° West 493 567 40,000  Level Kansas City Center
05:30PM 38.4542 -93.3433 258° West 495 570 40,000  Level Kansas City Center
05:31PM 38.4283 -93.5139 259° West 493 567 40,000  Level Kansas City Center
05:32PM 38.4028 -93.6858 259° West 494 568 40,000  Level Kansas City Center
05:33PM 38.3700 -93.8925 259° West 495 570 40,000  Level Kansas City Center
05:34PM 38.3422 -94.0644 258° West 497 572 40,000  Level Kansas City Center
05:35PM 38.3158 -94.2339 259° West 499 574 40,000  Level Kansas City Center
05:36PM 38.2881 -94.3994 258° West 500 575 40,000  Level Kansas City Center
05:37PM 38.2686 -94.5953 263° West 500 575 40,000  Level Kansas City Center
05:38PM 38.2642 -94.7631 268° West 499 574 40,000  Level Kansas City Center
05:39PM 38.2572 -94.9608 268° West 498 573 40,000  Level Kansas City Center
05:41PM 38.2519 -95.1286 268° West 497 572 40,000  Level Kansas City Center
05:42PM 38.2439 -95.3239 267° West 495 570 40,000  Level Kansas City Center
05:43PM 38.2389 -95.4919 268° West 495 570 40,000  Level Kansas City Center
05:44PM 38.2308 -95.6864 267° West 491 565 40,000  Level Kansas City Center
05:45PM 38.2239 -95.8522 267° West 491 565 40,000  Level Kansas City Center
05:46PM 38.2172 -96.0189 267° West 491 565 40,000  Level Kansas City Center
05:47PM 38.2083 -96.2131 267° West 491 565 40,000  Level Kansas City Center
05:48PM 38.2006 -96.3792 267° West 491 565 40,000  Level Kansas City Center
05:49PM 38.1917 -96.5733 267° West 496 571 40,000  Level Kansas City Center
05:50PM 38.1833 -96.7467 267° West 493 567 40,000  Level Kansas City Center
05:51PM 38.1742 -96.9200 266° West 492 566 40,000  Level Kansas City Center
05:52PM 38.1661 -97.0928 267° West 492 566 40,000  Level Kansas City Center
05:53PM 38.1567 -97.2647 266° West 491 565 40,000  Level Kansas City Center
05:54PM 38.1453 -97.4700 266° West 488 562 40,000  Level Kansas City Center
05:55PM 38.1358 -97.6378 266° West 489 563 40,000  Level Kansas City Center
05:56PM 38.1253 -97.8283 266° West 490 564 40,000  Level Kansas City Center
05:57PM 38.1156 -97.9989 266° West 488 562 40,000  Level Kansas City Center
05:58PM 38.1050 -98.1794 266° West 485 558 40,000  Level Kansas City Center
05:59PM 38.0947 -98.3467 266° West 481 554 40,000  Level Kansas City Center
06:00PM 38.0842 -98.5153 266° West 481 554 40,000  Level Kansas City Center
06:01PM 38.0736 -98.6850 266° West 483 556 40,000  Level Kansas City Center
06:02PM 38.0617 -98.8544 265° West 483 556 40,000  Level Kansas City Center
06:03PM 38.0503 -99.0236 265° West 483 556 40,000  Level Kansas City Center
06:04PM 38.0372 -99.2253 265° West 480 552 40,000  Level Kansas City Center
06:05PM 38.0256 -99.3931 265° West 478 550 40,000  Level Kansas City Center
06:06PM 38.0125 -99.5681 265° West 480 552 40,000  Level Kansas City Center
06:07PM 38.0006 -99.7283 265° West 479 551 40,000  Level Kansas City Center
06:08PM 37.9858 -99.9169 264° West 481 554 40,000  Level Kansas City Center
06:09PM 37.9733 -100.0789 264° West 483 556 40,000  Level Kansas City Center
06:11PM 37.9578 -100.2672 264° West 483 556 40,000  Level Kansas City Center
06:12PM 37.9447 -100.4292 264° West 484 557 40,000 360 Level Kansas City Center
06:13PM 37.9294 -100.6161 264° West 481 554 40,800 720 Climbing Kansas City Center
06:14PM 37.9269 -100.7742 269° West 477 549 41,600 720 Climbing Kansas City Center
06:15PM 37.9531 -100.9550 280° West 473 544 42,400 660 Climbing Kansas City Center
06:16PM 37.9811 -101.1081 283° West 472 543 43,000 240 Climbing Kansas City Center
06:17PM 38.0233 -101.2844 287° West 471 542 43,000  Level Kansas City Center
06:18PM 38.0581 -101.4367 286° West 471 542 43,000  Level Kansas City Center
06:19PM 38.0978 -101.6139 286° West 469 540 43,000  Level Kansas City Center
06:20PM 38.1331 -101.7658 286° West 470 541 43,000 -60 Level Kansas City Center
06:21PM 38.1728 -101.9436 286° West 470 541 42,900 -780 Descending Kansas City Center
06:22PM 38.2067 -102.0992 286° West 474 545 41,500 -2,040 Descending Kansas City Center
06:23PM 38.2594 -102.3358 286° West 485 558 38,100 -1,500 Descending Denver Center
06:24PM 38.2939 -102.4914 286° West 478 550 38,000 -780 Descending Denver Center
06:25PM 38.3339 -102.6781 285° West 490 564 36,600 -1,500 Descending Denver Center
06:26PM 38.3683 -102.8392 285° West 494 568 34,900 -2,160 Descending Denver Center
06:27PM 38.4097 -103.0278 286° West 495 570 32,100 -2,820 Descending Denver Center
06:28PM 38.4419 -103.1881 284° West 489 563 29,100 -2,520 Descending Denver Center
06:29PM 38.4769 -103.3517 285° West 431 496 27,000 -1,020 Descending Denver Center
06:30PM 38.5047 -103.4850 285° West 387 445 27,000  Level Denver Center
06:32PM 38.5381 -103.6125 289° West 397 457 27,000 -900 Level Denver Center
06:33PM 38.6342 -103.7172 320° Northwest 414 476 25,200 -1,860 Descending Denver Center
06:34PM 38.7211 -103.8008 323° Northwest 409 471 23,200 -2,160 Descending Denver Center
06:35PM 38.8200 -103.8944 324° Northwest 398 458 20,800 -2,280 Descending Denver Center
06:36PM 38.9081 -103.9769 324° Northwest 387 445 18,500 -2,100 Descending Denver Center
06:37PM 38.9883 -104.0544 323° Northwest 369 425 16,500 -1,260 Descending Denver Center
06:38PM 39.0381 -104.1569 302° West 341 392 16,000 -300 Descending Denver Center
06:39PM 39.0656 -104.2775 286° West 319 367 16,000 -480 Level Denver Center
06:40PM 39.0881 -104.3775 286° West 310 357 15,100 -1,320 Descending Denver Center
06:41PM 39.1464 -104.4772 307° West 327 376 13,300 -1,680 Descending Denver Center
06:42PM 39.2075 -104.5519 317° Northwest 305 351 11,700 -1,620 Descending Denver Center
06:43PM 39.2686 -104.6228 318° Northwest 297 342 10,000 -1,320 Descending Denver Center
06:44PM 39.3333 -104.7022 316° Northwest 299 344 9,000 -660 Descending Denver Center
06:45PM 39.3869 -104.7658 317° Northwest 268 308 8,700 -540 Descending Denver Center
06:46PM 39.4406 -104.8325 316° Northwest 247 284 8,000 -780 Descending Denver Center
06:47PM 39.4867 -104.8461 347° North 174 200 7,200 -780 Descending Denver Center
06:48PM 39.5286 -104.8483 358° North 143 165 6,500 -660 Descending Denver Center
06:49PM 39.5667 -104.8511 357° North 136 157 5,900 -600 Descending Denver Center
06:51PM 39.5701 -104.8493 126° Southeast  Level Estimated
06:58PM 39.5701 -104.8493 126° Southeast  Level Estimated